createdAt,value
2018-05-29T00:00:37.000Z,100251
2018-05-29T00:02:37.000Z,100257
2018-05-29T00:04:37.000Z,100257
2018-05-29T00:06:37.000Z,100255
2018-05-29T00:08:37.000Z,100257
2018-05-29T00:10:37.000Z,100258
2018-05-29T00:11:37.000Z,100261
2018-05-29T00:12:37.000Z,100257
2018-05-29T00:14:37.000Z,100250
2018-05-29T00:15:37.000Z,100248
2018-05-29T00:17:37.000Z,100255
2018-05-29T00:19:37.000Z,100261
2018-05-29T00:20:37.000Z,100255
2018-05-29T00:22:37.000Z,100255
2018-05-29T00:23:37.000Z,100257
2018-05-29T00:25:37.000Z,100260
2018-05-29T00:27:37.000Z,100260
2018-05-29T00:29:37.000Z,100260
2018-05-29T00:31:37.000Z,100260
2018-05-29T00:32:37.000Z,100262
2018-05-29T00:33:37.000Z,100262
2018-05-29T00:35:37.000Z,100263
2018-05-29T00:37:37.000Z,100257
2018-05-29T00:39:37.000Z,100259
2018-05-29T00:40:37.000Z,100262
2018-05-29T00:42:22.000Z,100260
2018-05-29T00:43:37.000Z,100261
2018-05-29T00:45:37.000Z,100254
2018-05-29T00:46:37.000Z,100259
2018-05-29T00:48:37.000Z,100256
2018-05-29T00:50:37.000Z,100246
2018-05-29T00:52:22.000Z,100250
2018-05-29T00:53:37.000Z,100248
2018-05-29T00:55:37.000Z,100243
2018-05-29T01:00:37.000Z,100245
2018-05-29T01:02:23.000Z,100245
2018-05-29T01:03:23.000Z,100242
2018-05-29T01:05:23.000Z,100246
2018-05-29T01:07:23.000Z,100249
2018-05-29T01:09:23.000Z,100248
2018-05-29T01:10:23.000Z,100248
2018-05-29T01:12:23.000Z,100244
2018-05-29T01:14:23.000Z,100244
2018-05-29T01:16:23.000Z,100243
2018-05-29T01:18:23.000Z,100249
2018-05-29T01:20:23.000Z,100249
2018-05-29T01:22:23.000Z,100242
2018-05-29T01:24:23.000Z,100242
2018-05-29T01:26:23.000Z,100244
2018-05-29T01:27:23.000Z,100237
2018-05-29T01:29:23.000Z,100232
2018-05-29T01:31:23.000Z,100233
2018-05-29T01:33:08.000Z,100229
2018-05-29T01:34:23.000Z,100231
2018-05-29T01:35:23.000Z,100228
2018-05-29T01:37:08.000Z,100174
2018-05-29T01:38:23.000Z,100228
2018-05-29T01:39:23.000Z,100227
2018-05-29T01:41:23.000Z,100230
2018-05-29T01:43:23.000Z,100229
2018-05-29T01:44:23.000Z,100230
2018-05-29T01:46:23.000Z,100231
2018-05-29T01:48:23.000Z,100230
2018-05-29T01:50:08.000Z,100222
2018-05-29T01:51:23.000Z,100221
2018-05-29T01:53:23.000Z,100216
2018-05-29T01:54:23.000Z,100214
2018-05-29T01:56:23.000Z,100213
2018-05-29T01:58:23.000Z,100214
2018-05-29T01:59:52.000Z,100214
2018-05-29T02:01:23.000Z,100213
2018-05-29T02:03:23.000Z,100206
2018-05-29T02:05:23.000Z,100208
2018-05-29T02:06:23.000Z,100214
2018-05-29T02:08:08.000Z,100214
2018-05-29T02:09:23.000Z,100211
2018-05-29T02:10:23.000Z,100207
2018-05-29T02:11:52.000Z,100203
2018-05-29T02:13:23.000Z,100198
2018-05-29T02:15:23.000Z,100195
2018-05-29T02:17:23.000Z,100196
2018-05-29T02:19:23.000Z,100195
2018-05-29T02:21:23.000Z,100197
2018-05-29T02:23:23.000Z,100203
2018-05-29T02:25:23.000Z,100199
2018-05-29T02:27:23.000Z,100197
2018-05-29T02:29:23.000Z,100201
2018-05-29T02:31:23.000Z,100203
2018-05-29T02:33:23.000Z,100201
2018-05-29T02:35:23.000Z,100197
2018-05-29T02:37:08.000Z,100202
2018-05-29T02:38:23.000Z,100199
2018-05-29T02:39:23.000Z,100199
2018-05-29T02:41:23.000Z,100200
2018-05-29T02:43:23.000Z,100198
2018-05-29T02:45:23.000Z,100199
2018-05-29T02:46:23.000Z,100192
2018-05-29T02:48:23.000Z,100189
2018-05-29T02:49:52.000Z,100188
2018-05-29T02:51:23.000Z,100181
2018-05-29T02:53:23.000Z,100171
2018-05-29T02:55:23.000Z,100168
2018-05-29T02:56:23.000Z,100177
2018-05-29T02:58:08.000Z,100171
2018-05-29T02:59:23.000Z,100170
2018-05-29T03:01:23.000Z,100168
2018-05-29T03:02:52.000Z,100167
2018-05-29T03:04:23.000Z,100165
2018-05-29T03:06:23.000Z,100165
2018-05-29T03:08:23.000Z,100164
2018-05-29T03:10:08.000Z,100168
2018-05-29T03:11:23.000Z,100166
2018-05-29T03:13:08.000Z,100162
2018-05-29T03:14:23.000Z,100167
2018-05-29T03:16:08.000Z,100160
2018-05-29T03:17:23.000Z,100162
2018-05-29T03:19:08.000Z,100160
2018-05-29T03:20:23.000Z,100161
2018-05-29T03:21:23.000Z,100160
2018-05-29T03:23:23.000Z,100166
2018-05-29T03:24:23.000Z,100166
2018-05-29T03:26:23.000Z,100162
2018-05-29T03:27:23.000Z,100159
2018-05-29T03:29:23.000Z,100162
2018-05-29T03:31:08.000Z,100162
2018-05-29T03:32:23.000Z,100161
2018-05-29T03:34:08.000Z,100157
2018-05-29T03:35:23.000Z,100165
2018-05-29T03:37:08.000Z,100160
2018-05-29T03:38:23.000Z,100159
2018-05-29T03:40:23.000Z,100168
2018-05-29T03:41:23.000Z,100162
2018-05-29T03:43:23.000Z,100156
2018-05-29T03:45:23.000Z,100153
2018-05-29T03:46:23.000Z,100154
2018-05-29T03:47:23.000Z,100154
2018-05-29T03:49:23.000Z,100154
2018-05-29T03:51:23.000Z,100150
2018-05-29T03:52:23.000Z,100158
2018-05-29T03:54:08.000Z,100153
2018-05-29T03:55:23.000Z,100155
2018-05-29T03:57:23.000Z,100159
2018-05-29T03:59:23.000Z,100162
2018-05-29T04:01:23.000Z,100160
2018-05-29T04:03:08.000Z,100157
2018-05-29T04:04:23.000Z,100165
2018-05-29T04:06:23.000Z,100163
2018-05-29T04:08:23.000Z,100157
2018-05-29T04:09:23.000Z,100162
2018-05-29T04:11:23.000Z,100161
2018-05-29T04:13:23.000Z,100159
2018-05-29T04:15:08.000Z,100155
2018-05-29T04:17:23.000Z,100162
2018-05-29T04:18:23.000Z,100165
2018-05-29T04:20:23.000Z,100163
2018-05-29T04:22:23.000Z,100158
2018-05-29T04:24:23.000Z,100157
2018-05-29T04:26:23.000Z,100158
2018-05-29T04:27:23.000Z,100162
2018-05-29T04:29:23.000Z,100163
2018-05-29T04:31:23.000Z,100164
2018-05-29T04:32:23.000Z,100165
2018-05-29T04:34:23.000Z,100165
2018-05-29T04:35:23.000Z,100167
2018-05-29T04:36:23.000Z,100168
2018-05-29T04:38:23.000Z,100166
2018-05-29T04:39:23.000Z,100167
2018-05-29T04:41:23.000Z,100165
2018-05-29T04:43:08.000Z,100169
2018-05-29T04:44:23.000Z,100168
2018-05-29T04:46:08.000Z,100167
2018-05-29T04:47:23.000Z,100167
2018-05-29T04:49:23.000Z,100165
2018-05-29T04:50:23.000Z,100165
2018-05-29T04:52:23.000Z,100165
2018-05-29T04:54:08.000Z,100165
2018-05-29T04:55:23.000Z,100169
2018-05-29T04:57:23.000Z,100171
2018-05-29T04:59:23.000Z,100174
2018-05-29T05:00:23.000Z,100181
2018-05-29T05:02:08.000Z,100179
2018-05-29T05:03:23.000Z,100181
2018-05-29T05:04:23.000Z,100179
2018-05-29T05:06:23.000Z,100181
2018-05-29T05:08:08.000Z,100180
2018-05-29T05:09:23.000Z,100179
2018-05-29T05:10:23.000Z,100181
2018-05-29T05:12:23.000Z,100179
2018-05-29T05:14:23.000Z,100176
2018-05-29T05:16:23.000Z,100175
2018-05-29T05:18:08.000Z,100175
2018-05-29T05:19:23.000Z,100172
2018-05-29T05:21:23.000Z,100161
2018-05-29T05:22:23.000Z,100168
2018-05-29T05:23:23.000Z,100164
2018-05-29T05:25:08.000Z,100161
2018-05-29T05:26:23.000Z,100166
2018-05-29T05:27:23.000Z,100164
2018-05-29T05:29:23.000Z,100159
2018-05-29T05:30:23.000Z,100156
2018-05-29T05:32:08.000Z,100162
2018-05-29T05:33:23.000Z,100160
2018-05-29T05:35:08.000Z,100153
2018-05-29T05:36:23.000Z,100156
2018-05-29T05:37:23.000Z,100155
2018-05-29T05:39:23.000Z,100153
2018-05-29T05:41:23.000Z,100160
2018-05-29T05:43:23.000Z,100162
2018-05-29T05:45:23.000Z,100164
2018-05-29T05:47:23.000Z,100163
2018-05-29T05:48:23.000Z,100158
2018-05-29T05:50:23.000Z,100159
2018-05-29T05:51:23.000Z,100157
2018-05-29T05:52:23.000Z,100160
2018-05-29T05:54:23.000Z,100148
2018-05-29T05:55:23.000Z,100156
2018-05-29T05:56:23.000Z,100158
2018-05-29T05:58:08.000Z,100158
2018-05-29T05:59:23.000Z,100165
2018-05-29T06:01:08.000Z,100162
2018-05-29T06:02:23.000Z,100167
2018-05-29T06:04:23.000Z,100168
2018-05-29T06:06:23.000Z,100165
2018-05-29T06:08:23.000Z,100174
2018-05-29T06:10:23.000Z,100167
2018-05-29T06:12:23.000Z,100163
2018-05-29T06:14:23.000Z,100157
2018-05-29T06:16:23.000Z,100165
2018-05-29T06:17:23.000Z,100165
2018-05-29T06:19:23.000Z,100159
2018-05-29T06:21:23.000Z,100158
2018-05-29T06:22:23.000Z,100160
2018-05-29T06:24:23.000Z,100152
2018-05-29T06:26:23.000Z,100162
2018-05-29T06:28:23.000Z,100168
2018-05-29T06:29:23.000Z,100166
2018-05-29T06:31:08.000Z,100164
2018-05-29T06:32:23.000Z,100159
2018-05-29T06:34:08.000Z,100165
2018-05-29T06:35:23.000Z,100157
2018-05-29T06:36:23.000Z,100156
2018-05-29T06:37:23.000Z,100155
2018-05-29T06:39:23.000Z,100146
2018-05-29T06:41:23.000Z,100140
2018-05-29T06:43:23.000Z,100144
2018-05-29T06:45:23.000Z,100155
2018-05-29T06:46:23.000Z,100157
2018-05-29T06:48:23.000Z,100155
2018-05-29T06:50:08.000Z,100157
2018-05-29T06:51:23.000Z,100157
2018-05-29T06:53:23.000Z,100156
2018-05-29T06:54:23.000Z,100151
2018-05-29T06:56:23.000Z,100153
2018-05-29T06:57:23.000Z,100147
2018-05-29T06:58:23.000Z,100151
2018-05-29T07:00:23.000Z,100144
2018-05-29T07:02:23.000Z,100148
2018-05-29T07:03:23.000Z,100143
2018-05-29T07:04:23.000Z,100141
2018-05-29T07:06:23.000Z,100142
2018-05-29T07:08:08.000Z,100136
2018-05-29T07:09:23.000Z,100137
2018-05-29T07:10:53.000Z,100134
2018-05-29T07:12:23.000Z,100138
2018-05-29T07:13:23.000Z,100141
2018-05-29T07:15:23.000Z,100141
2018-05-29T07:16:23.000Z,100138
2018-05-29T07:18:08.000Z,100138
2018-05-29T07:19:23.000Z,100138
2018-05-29T07:21:08.000Z,100135
2018-05-29T07:22:08.000Z,100134
2018-05-29T07:23:23.000Z,100136
2018-05-29T07:24:23.000Z,100134
2018-05-29T07:26:08.000Z,100125
2018-05-29T07:27:08.000Z,100122
2018-05-29T07:28:24.000Z,100123
2018-05-29T07:30:23.000Z,100120
2018-05-29T07:31:23.000Z,100121
2018-05-29T07:33:23.000Z,100121
2018-05-29T07:35:08.000Z,100121
2018-05-29T07:36:23.000Z,100119
2018-05-29T07:38:08.000Z,100115
2018-05-29T07:39:23.000Z,100113
2018-05-29T07:40:23.000Z,100115
2018-05-29T07:42:23.000Z,100111
2018-05-29T07:44:23.000Z,100110
2018-05-29T07:46:23.000Z,100113
2018-05-29T07:47:23.000Z,100111
2018-05-29T07:49:23.000Z,100101
2018-05-29T07:51:23.000Z,100106
2018-05-29T07:52:23.000Z,100108
2018-05-29T07:53:23.000Z,100103
2018-05-29T07:55:23.000Z,100106
2018-05-29T07:57:23.000Z,100098
2018-05-29T07:58:23.000Z,100105
2018-05-29T08:00:23.000Z,100100
2018-05-29T08:01:23.000Z,100103
2018-05-29T08:02:23.000Z,100103
2018-05-29T08:04:23.000Z,100103
2018-05-29T08:06:23.000Z,100104
2018-05-29T08:08:23.000Z,100101
2018-05-29T08:09:23.000Z,100107
2018-05-29T08:11:23.000Z,100098
2018-05-29T08:12:23.000Z,100102
2018-05-29T08:14:23.000Z,100092
2018-05-29T08:16:23.000Z,100093
2018-05-29T08:17:23.000Z,100090
2018-05-29T08:19:23.000Z,100090
2018-05-29T08:20:23.000Z,100092
2018-05-29T08:22:23.000Z,100095
2018-05-29T08:24:08.000Z,100086
2018-05-29T08:25:23.000Z,100086
2018-05-29T08:26:23.000Z,100089
2018-05-29T08:27:23.000Z,100086
2018-05-29T08:29:08.000Z,100080
2018-05-29T08:30:23.000Z,100081
2018-05-29T08:31:23.000Z,100078
2018-05-29T08:33:23.000Z,100077
2018-05-29T08:35:24.000Z,100075
2018-05-29T08:37:23.000Z,100076
2018-05-29T08:39:24.000Z,100073
2018-05-29T08:41:24.000Z,100070
2018-05-29T08:43:24.000Z,100071
2018-05-29T08:45:23.000Z,100060
2018-05-29T08:47:23.000Z,100060
2018-05-29T08:49:23.000Z,100062
2018-05-29T08:51:23.000Z,100058
2018-05-29T08:53:08.000Z,100053
2018-05-29T08:54:23.000Z,100049
2018-05-29T08:55:23.000Z,100049
2018-05-29T08:57:23.000Z,100045
2018-05-29T08:58:23.000Z,100050
2018-05-29T08:59:24.000Z,100046
2018-05-29T09:01:09.000Z,100042
2018-05-29T09:03:24.000Z,100042
2018-05-29T09:05:08.000Z,100037
2018-05-29T09:06:23.000Z,100039
2018-05-29T09:08:23.000Z,100036
2018-05-29T09:09:23.000Z,100038
2018-05-29T09:10:23.000Z,100027
2018-05-29T09:12:23.000Z,100032
2018-05-29T09:13:23.000Z,100031
2018-05-29T09:15:08.000Z,100027
2018-05-29T09:16:23.000Z,100024
2018-05-29T09:18:23.000Z,100026
2018-05-29T09:20:23.000Z,100028
2018-05-29T09:22:23.000Z,100027
2018-05-29T09:23:23.000Z,100022
2018-05-29T09:25:23.000Z,100023
2018-05-29T09:27:08.000Z,100024
2018-05-29T09:28:23.000Z,100021
2018-05-29T09:29:23.000Z,100024
2018-05-29T09:31:23.000Z,100023
2018-05-29T09:33:23.000Z,100020
2018-05-29T09:35:23.000Z,100021
2018-05-29T09:36:23.000Z,100016
2018-05-29T09:37:23.000Z,100015
2018-05-29T09:39:23.000Z,100011
2018-05-29T09:41:23.000Z,100011
2018-05-29T09:43:23.000Z,100012
2018-05-29T09:45:23.000Z,100008
2018-05-29T09:47:08.000Z,100003
2018-05-29T09:48:23.000Z,100002
2018-05-29T09:50:23.000Z,100003
2018-05-29T09:51:23.000Z,99999
2018-05-29T09:52:23.000Z,100001
2018-05-29T09:54:23.000Z,100006
2018-05-29T09:56:23.000Z,100009
2018-05-29T09:57:23.000Z,100008
2018-05-29T09:59:23.000Z,100005
2018-05-29T10:01:23.000Z,100001
2018-05-29T10:02:23.000Z,100004
2018-05-29T10:03:23.000Z,99994
2018-05-29T10:05:23.000Z,99998
2018-05-29T10:07:23.000Z,99992
2018-05-29T10:09:23.000Z,99993
2018-05-29T10:11:23.000Z,99995
2018-05-29T10:12:23.000Z,99997
2018-05-29T10:14:23.000Z,99990
2018-05-29T10:16:23.000Z,99989
2018-05-29T10:18:08.000Z,99987
2018-05-29T10:19:23.000Z,99988
2018-05-29T10:20:23.000Z,99987
2018-05-29T10:22:23.000Z,99989
2018-05-29T10:24:23.000Z,99986
2018-05-29T10:26:08.000Z,99989
2018-05-29T10:27:23.000Z,99989
2018-05-29T10:28:23.000Z,99985
2018-05-29T10:30:23.000Z,99986
2018-05-29T10:32:23.000Z,99978
2018-05-29T10:34:23.000Z,99976
2018-05-29T10:36:23.000Z,99970
2018-05-29T10:38:23.000Z,99976
2018-05-29T10:40:23.000Z,99967
2018-05-29T10:42:08.000Z,99974
2018-05-29T10:43:23.000Z,99974
2018-05-29T10:44:23.000Z,99971
2018-05-29T10:46:08.000Z,99971
2018-05-29T10:47:23.000Z,99974
2018-05-29T10:48:23.000Z,99971
2018-05-29T10:50:08.000Z,99972
2018-05-29T10:51:08.000Z,99974
2018-05-29T10:52:23.000Z,99971
2018-05-29T10:53:23.000Z,99972
2018-05-29T10:55:23.000Z,99968
2018-05-29T10:57:23.000Z,99972
2018-05-29T10:59:23.000Z,99966
2018-05-29T11:01:08.000Z,99965
2018-05-29T11:02:23.000Z,99966
2018-05-29T11:04:23.000Z,99960
2018-05-29T11:06:23.000Z,99958
2018-05-29T11:08:08.000Z,99959
2018-05-29T11:09:23.000Z,99952
2018-05-29T11:11:23.000Z,99951
2018-05-29T11:13:23.000Z,99950
2018-05-29T11:15:23.000Z,99949
2018-05-29T11:17:23.000Z,99949
2018-05-29T11:18:23.000Z,99946
2018-05-29T11:20:23.000Z,99942
2018-05-29T11:22:23.000Z,99937
2018-05-29T11:23:23.000Z,99940
2018-05-29T11:25:23.000Z,99942
2018-05-29T11:27:23.000Z,99942
2018-05-29T11:28:23.000Z,99939
2018-05-29T11:30:23.000Z,99935
2018-05-29T11:32:23.000Z,99943
2018-05-29T11:34:23.000Z,99937
2018-05-29T11:36:23.000Z,99939
2018-05-29T11:38:23.000Z,99939
2018-05-29T11:40:23.000Z,99926
2018-05-29T11:41:23.000Z,99924
2018-05-29T11:43:08.000Z,99921
2018-05-29T11:44:23.000Z,99918
2018-05-29T11:46:23.000Z,99915
2018-05-29T11:48:23.000Z,99914
2018-05-29T11:49:23.000Z,99913
2018-05-29T11:51:23.000Z,99918
2018-05-29T11:53:23.000Z,99909
2018-05-29T11:54:23.000Z,99909
2018-05-29T11:56:23.000Z,99906
2018-05-29T11:58:08.000Z,99902
2018-05-29T11:59:23.000Z,99898
2018-05-29T12:01:23.000Z,99890
2018-05-29T12:03:23.000Z,99889
2018-05-29T12:04:23.000Z,99887
2018-05-29T12:06:08.000Z,99893
2018-05-29T12:07:23.000Z,99885
2018-05-29T12:09:23.000Z,99890
2018-05-29T12:11:23.000Z,99880
2018-05-29T12:12:23.000Z,99889
2018-05-29T12:14:08.000Z,99880
2018-05-29T12:15:23.000Z,99882
2018-05-29T12:17:23.000Z,99887
2018-05-29T12:19:23.000Z,99879
2018-05-29T12:21:23.000Z,99878
2018-05-29T12:23:08.000Z,99824
2018-05-29T12:25:23.000Z,99865
2018-05-29T12:27:23.000Z,99860
2018-05-29T12:29:23.000Z,99857
2018-05-29T12:31:23.000Z,99860
2018-05-29T12:33:23.000Z,99854
2018-05-29T12:35:23.000Z,99852
2018-05-29T12:37:23.000Z,99854
2018-05-29T12:38:23.000Z,99851
2018-05-29T12:40:23.000Z,99837
2018-05-29T12:42:23.000Z,99824
2018-05-29T12:44:23.000Z,99818
2018-05-29T12:45:23.000Z,99814
2018-05-29T12:47:23.000Z,99815
2018-05-29T12:49:23.000Z,99813
2018-05-29T12:51:23.000Z,99816
2018-05-29T12:53:23.000Z,99832
2018-05-29T12:54:23.000Z,99840
2018-05-29T12:56:23.000Z,99842
2018-05-29T12:57:23.000Z,99848
2018-05-29T12:59:23.000Z,99853
2018-05-29T13:01:23.000Z,99846
2018-05-29T13:02:53.000Z,99850
2018-05-29T13:04:23.000Z,99848
2018-05-29T13:06:23.000Z,99848
2018-05-29T13:08:23.000Z,99847
2018-05-29T13:10:23.000Z,99845
2018-05-29T13:12:23.000Z,99846
2018-05-29T13:13:23.000Z,99844
2018-05-29T13:15:23.000Z,99847
2018-05-29T13:16:23.000Z,99853
2018-05-29T13:18:08.000Z,99850
2018-05-29T13:19:23.000Z,99849
2018-05-29T13:20:23.000Z,99848
2018-05-29T13:22:23.000Z,99844
2018-05-29T13:24:08.000Z,99848
2018-05-29T13:25:23.000Z,99846
2018-05-29T13:27:23.000Z,99834
2018-05-29T13:29:23.000Z,99838
2018-05-29T13:31:23.000Z,99822
2018-05-29T13:33:23.000Z,99798
2018-05-29T13:35:23.000Z,99802
2018-05-29T13:37:23.000Z,99806
2018-05-29T13:38:23.000Z,99812
2018-05-29T13:40:23.000Z,99825
2018-05-29T13:41:23.000Z,99835
2018-05-29T13:43:23.000Z,99852
2018-05-29T13:44:23.000Z,99854
2018-05-29T13:46:23.000Z,99868
2018-05-29T13:48:08.000Z,99878
2018-05-29T13:49:23.000Z,99880
2018-05-29T13:50:23.000Z,99879
2018-05-29T13:52:23.000Z,99879
2018-05-29T13:53:23.000Z,99879
2018-05-29T13:54:23.000Z,99879
2018-05-29T13:55:23.000Z,99869
2018-05-29T13:57:23.000Z,99867
2018-05-29T13:58:23.000Z,99865
2018-05-29T13:59:23.000Z,99868
2018-05-29T14:01:23.000Z,99872
2018-05-29T14:02:23.000Z,99879
2018-05-29T14:04:23.000Z,99887
2018-05-29T14:05:23.000Z,99882
2018-05-29T14:07:23.000Z,99880
2018-05-29T14:08:23.000Z,99877
2018-05-29T14:10:23.000Z,99872
2018-05-29T14:12:08.000Z,99863
2018-05-29T14:13:23.000Z,99861
2018-05-29T14:15:23.000Z,99877
2018-05-29T14:17:08.000Z,99887
2018-05-29T14:18:23.000Z,99907
2018-05-29T14:19:23.000Z,99907
2018-05-29T14:21:08.000Z,99945
2018-05-29T14:22:23.000Z,99971
2018-05-29T14:23:23.000Z,99968
2018-05-29T14:24:23.000Z,99971
2018-05-29T14:26:23.000Z,99943
2018-05-29T14:27:23.000Z,99940
2018-05-29T14:29:08.000Z,99929
2018-05-29T14:30:23.000Z,99920
2018-05-29T14:32:23.000Z,99938
2018-05-29T14:34:23.000Z,99921
2018-05-29T14:36:08.000Z,99920
2018-05-29T14:37:23.000Z,99902
2018-05-29T14:38:23.000Z,99908
2018-05-29T14:40:23.000Z,99884
2018-05-29T14:41:53.000Z,99871
2018-05-29T14:43:23.000Z,99871
2018-05-29T14:44:23.000Z,99868
2018-05-29T14:46:23.000Z,99865
2018-05-29T14:48:08.000Z,99856
2018-05-29T14:49:23.000Z,99856
2018-05-29T14:51:24.000Z,99846
2018-05-29T14:53:24.000Z,99861
2018-05-29T14:55:24.000Z,99860
2018-05-29T14:57:24.000Z,99855
2018-05-29T14:59:24.000Z,99859
2018-05-29T15:01:24.000Z,99856
2018-05-29T15:03:24.000Z,99867
2018-05-29T15:05:24.000Z,99875
2018-05-29T15:07:24.000Z,99885
2018-05-29T15:09:24.000Z,99895
2018-05-29T15:10:24.000Z,99903
2018-05-29T15:12:24.000Z,99908
2018-05-29T15:14:24.000Z,99948
2018-05-29T15:16:24.000Z,99936
2018-05-29T15:18:24.000Z,99906
2018-05-29T15:20:24.000Z,99896
2018-05-29T15:22:24.000Z,99882
2018-05-29T15:24:24.000Z,99879
2018-05-29T15:26:24.000Z,99874
2018-05-29T15:28:24.000Z,99861
2018-05-29T15:29:24.000Z,99850
2018-05-29T15:31:24.000Z,99864
2018-05-29T15:33:24.000Z,99877
2018-05-29T15:34:24.000Z,99878
2018-05-29T15:36:24.000Z,99884
2018-05-29T15:37:24.000Z,99883
2018-05-29T15:39:08.000Z,99897
2018-05-29T15:40:24.000Z,99905
2018-05-29T15:41:24.000Z,99924
2018-05-29T15:43:24.000Z,99925
2018-05-29T15:45:24.000Z,99931
2018-05-29T15:47:24.000Z,99957
2018-05-29T15:49:24.000Z,99949
2018-05-29T15:50:24.000Z,99941
2018-05-29T15:51:24.000Z,99944
2018-05-29T15:53:24.000Z,99949
2018-05-29T15:55:23.000Z,99967
2018-05-29T15:57:23.000Z,99960
2018-05-29T15:59:23.000Z,99959
2018-05-29T16:01:23.000Z,99952
2018-05-29T16:03:23.000Z,99974
2018-05-29T16:04:23.000Z,99964
2018-05-29T16:06:23.000Z,99960
2018-05-29T16:08:23.000Z,99959
2018-05-29T16:09:23.000Z,99960
2018-05-29T16:10:23.000Z,99952
2018-05-29T16:12:23.000Z,99954
2018-05-29T16:14:23.000Z,99958
2018-05-29T16:16:23.000Z,99955
2018-05-29T16:17:23.000Z,99955
2018-05-29T16:19:23.000Z,99940
2018-05-29T16:21:08.000Z,99936
2018-05-29T16:22:23.000Z,99930
2018-05-29T16:23:23.000Z,99924
2018-05-29T16:25:23.000Z,99929
2018-05-29T16:27:23.000Z,99921
2018-05-29T16:28:23.000Z,99919
2018-05-29T16:30:23.000Z,99908
2018-05-29T16:31:53.000Z,99902
2018-05-29T16:33:23.000Z,99899
2018-05-29T16:35:23.000Z,99885
2018-05-29T16:37:23.000Z,99882
2018-05-29T16:38:23.000Z,99879
2018-05-29T16:40:23.000Z,99873
2018-05-29T16:42:23.000Z,99867
2018-05-29T16:44:23.000Z,99862
2018-05-29T16:46:23.000Z,99861
2018-05-29T16:48:23.000Z,99856
2018-05-29T16:50:23.000Z,99848
2018-05-29T16:52:23.000Z,99838
2018-05-29T16:54:23.000Z,99839
2018-05-29T16:56:23.000Z,99832
2018-05-29T16:57:53.000Z,99825
2018-05-29T16:59:23.000Z,99817
2018-05-29T17:00:23.000Z,99814
2018-05-29T17:02:23.000Z,99808
2018-05-29T17:04:23.000Z,99797
2018-05-29T17:05:23.000Z,99801
2018-05-29T17:07:23.000Z,99795
2018-05-29T17:08:23.000Z,99791
2018-05-29T17:10:23.000Z,99789
2018-05-29T17:11:23.000Z,99788
2018-05-29T17:13:23.000Z,99798
2018-05-29T17:15:23.000Z,99802
2018-05-29T17:16:23.000Z,99799
2018-05-29T17:18:08.000Z,99797
2018-05-29T17:19:23.000Z,99799
2018-05-29T17:20:23.000Z,99799
2018-05-29T17:22:23.000Z,99811
2018-05-29T17:23:23.000Z,99806
2018-05-29T17:25:23.000Z,99820
2018-05-29T17:26:23.000Z,99827
2018-05-29T17:28:23.000Z,99845
2018-05-29T17:29:23.000Z,99851
2018-05-29T17:31:23.000Z,99869
2018-05-29T17:32:23.000Z,99858
2018-05-29T17:34:23.000Z,99860
2018-05-29T17:36:23.000Z,99862
2018-05-29T17:37:23.000Z,99869
2018-05-29T17:39:23.000Z,99873
2018-05-29T17:40:23.000Z,99869
2018-05-29T17:41:23.000Z,99878
2018-05-29T17:43:23.000Z,99885
2018-05-29T17:45:23.000Z,99891
2018-05-29T17:47:23.000Z,99905
2018-05-29T17:48:23.000Z,99914
2018-05-29T17:50:23.000Z,99914
2018-05-29T17:52:23.000Z,99922
2018-05-29T17:53:23.000Z,99927
2018-05-29T17:55:23.000Z,99923
2018-05-29T17:57:23.000Z,99927
2018-05-29T17:59:08.000Z,99920
2018-05-29T18:00:23.000Z,99925
2018-05-29T18:01:24.000Z,99921
2018-05-29T18:03:24.000Z,99920
2018-05-29T18:05:08.000Z,99924
2018-05-29T18:06:24.000Z,99923
2018-05-29T18:07:24.000Z,99928
2018-05-29T18:08:24.000Z,99934
2018-05-29T18:10:24.000Z,99942
2018-05-29T18:12:24.000Z,99947
2018-05-29T18:14:24.000Z,99946
2018-05-29T18:15:24.000Z,99947
2018-05-29T18:16:24.000Z,99942
2018-05-29T18:18:24.000Z,99943
2018-05-29T18:19:24.000Z,99939
2018-05-29T18:21:08.000Z,99938
2018-05-29T18:22:24.000Z,99945
2018-05-29T18:23:24.000Z,99946
2018-05-29T18:25:24.000Z,99955
2018-05-29T18:27:24.000Z,99953
2018-05-29T18:29:08.000Z,99957
2018-05-29T18:30:24.000Z,99963
2018-05-29T18:31:24.000Z,99969
2018-05-29T18:33:24.000Z,99978
2018-05-29T18:35:24.000Z,99995
2018-05-29T18:37:08.000Z,100004
2018-05-29T18:38:24.000Z,100000
2018-05-29T18:39:24.000Z,100007
2018-05-29T18:40:24.000Z,100005
2018-05-29T18:42:08.000Z,100001
2018-05-29T18:43:24.000Z,100002
2018-05-29T18:44:53.000Z,100003
2018-05-29T18:46:24.000Z,99998
2018-05-29T18:47:24.000Z,99994
2018-05-29T18:49:24.000Z,100009
2018-05-29T18:50:24.000Z,100010
2018-05-29T18:51:24.000Z,100010
2018-05-29T18:53:24.000Z,100005
2018-05-29T18:54:24.000Z,100009
2018-05-29T18:56:08.000Z,100005
2018-05-29T18:57:24.000Z,100004
2018-05-29T18:58:24.000Z,100009
2018-05-29T19:00:24.000Z,100012
2018-05-29T19:02:08.000Z,100013
2018-05-29T19:03:08.000Z,100015
2018-05-29T19:04:23.000Z,100007
2018-05-29T19:05:23.000Z,100014
2018-05-29T19:07:08.000Z,100010
2018-05-29T19:08:23.000Z,100008
2018-05-29T19:09:23.000Z,100003
2018-05-29T19:11:23.000Z,100003
2018-05-29T19:12:23.000Z,100006
2018-05-29T19:14:23.000Z,100005
2018-05-29T19:15:23.000Z,100005
2018-05-29T19:17:23.000Z,100010
2018-05-29T19:18:23.000Z,100011
2018-05-29T19:20:23.000Z,100022
2018-05-29T19:22:23.000Z,100030
2018-05-29T19:23:23.000Z,100033
2018-05-29T19:25:23.000Z,100034
2018-05-29T19:27:23.000Z,100038
2018-05-29T19:29:23.000Z,100046
2018-05-29T19:30:23.000Z,100047
2018-05-29T19:32:23.000Z,100050
2018-05-29T19:34:23.000Z,100054
2018-05-29T19:35:23.000Z,100056
2018-05-29T19:37:08.000Z,100050
2018-05-29T19:38:23.000Z,100054
2018-05-29T19:40:23.000Z,100046
2018-05-29T19:42:23.000Z,100056
2018-05-29T19:43:23.000Z,100054
2018-05-29T19:44:23.000Z,100051
2018-05-29T19:46:08.000Z,100053
2018-05-29T19:47:23.000Z,100053
2018-05-29T19:49:23.000Z,100053
2018-05-29T19:51:23.000Z,100049
2018-05-29T19:53:23.000Z,100040
2018-05-29T19:55:23.000Z,100041
2018-05-29T19:57:23.000Z,100028
2018-05-29T19:59:08.000Z,100034
2018-05-29T20:00:23.000Z,100038
2018-05-29T20:02:23.000Z,100035
2018-05-29T20:03:23.000Z,100030
2018-05-29T20:05:23.000Z,100031
2018-05-29T20:07:23.000Z,100028
2018-05-29T20:09:24.000Z,100029
2018-05-29T20:11:24.000Z,100029
2018-05-29T20:12:24.000Z,100023
2018-05-29T20:14:24.000Z,100026
2018-05-29T20:16:08.000Z,100014
2018-05-29T20:17:24.000Z,100012
2018-05-29T20:19:24.000Z,100009
2018-05-29T20:21:08.000Z,100014
2018-05-29T20:22:24.000Z,100010
2018-05-29T20:23:24.000Z,100010
2018-05-29T20:24:24.000Z,100009
2018-05-29T20:26:24.000Z,99999
2018-05-29T20:28:08.000Z,99998
2018-05-29T20:29:24.000Z,99993
2018-05-29T20:30:24.000Z,99989
2018-05-29T20:32:08.000Z,99988